Airfield :







YOU CAN JOIN US ON...

 
LOGIN :

Register | Disclaimer

   EN    FR    IT 

 









Legend :    VFR   Marginal VFR   IFR   Intensive IFR   Very Intensive IFR
Visi :
Ceiling :
>= 8 km
>= 3000ft
5 to 8 km
1000 to 3000 ft
1500m to 5 km
500 to 1000 ft
800 to 1500m
200 to 500 ft
< 800m
< 200 ft
Symbols :   Thunderstorms  Fog  Heavy snow  Heavy precipitations  Wind > 20 kt






- Airport Elevation : 118 ft
- IATA code : YUL


CYUL - Montréal - Pierre-Elliott-Trudeau Int.

CURRENT METAR :
  • 021900Z 31006KT 15SM -RA BKN018 06/02 A2981 RMK SC8 SLP099

EXPIRED METARs :
  • 021800Z 31007KT 280V340 15SM OVC022 06/01 A2982 RMK SC8 SLP101
  • 021700Z 33009KT 290V360 15SM -RA OVC028 05/00 A2983 RMK SC8 SLP103

TAF TAF CYUL
Valid from the 02 at 18:00 until the 03 at 18:00 UTC


021738Z 0218/0318 34008KT P6SM -RA OVC030
TEMPO 0218/0220 6SM -RA BR OVC020
FM022000 34012KT 5SM -RA BR OVC015
TEMPO 0220/0301 P6SM -RA
FM030100 35012KT P6SM -RA OVC012
TEMPO 0301/0309 4SM -RA BR OVC008
BECMG 0304/0306 03010G20KT
FM030900 03015G25KT 4SM -RA BR OVC008
FM031400 03015G25KT 4SM -RA BR BKN012 OVC030
FM031600 04017G27KT P6SM OVC015 RMK NXT FCST BY 022100Z
ATIS : ENG : +1 514-633-3037 FRA : +1 514-633-3034



MET'MAP, your aeronautical weather chart ! - Copyright ORBIFLY December 2007 - Disclaimer

ORBIFLY MET'MAP TEAM :

Programming & Development : Alexandra Zaïnal
Concept & original design : Baudouin d'Aumeries
Assistance for programming : Marc-Olivier Méhu
Technical & hardware support : Manuel Goepfert

Contact : metmap@orbifly.com




SOURCES & CREDITS :

   NOAA